Flight Track Log - Related Links

Times and Time Zones

All times are in EDT time to prevent confusion due to time zone crossing. See the N414JK flight status page for this flight to view local times or setup timezone preferences in your user account.

Time Position Orientation Groundspeed Altitude Reporting Facility
EDT Latitude Longitude Course Direction KTS MPH feet Rate Location/Type
Tue 09:42:27 AM 40.3000 -74.8500 310° West 150 173 1,400  Level Philadelphia TRACON
Tue 09:43:33 AM 40.2833 -74.9000 246° West 131 151 2,300 762 Climbing Philadelphia TRACON
Tue 09:44:33 AM 40.2833 -74.9500 270° West 128 147 3,000 650 Climbing Philadelphia TRACON
Tue 09:45:33 AM 40.2833 -75.0000 270° West 128 147 3,600 600 Climbing Philadelphia TRACON
Tue 09:46:33 AM 40.2833 -75.0333 270° West 134 154 4,200 619 Climbing Philadelphia TRACON
Tue 09:47:39 AM 40.2667 -75.1000 252° West 133 153 4,900 364 Climbing Philadelphia TRACON
Tue 09:48:45 AM 40.2667 -75.1500 270° West 159 183 5,000 48 Climbing Philadelphia TRACON
Tue 09:49:45 AM 40.2667 -75.2167 270° West 161 185 5,000 100 Level Philadelphia TRACON
Tue 09:50:45 AM 40.2500 -75.2667 246° West 160 184 5,200 364 Climbing Philadelphia TRACON
Tue 09:51:57 AM 40.2486 -75.3286 268° West 153 176 5,800 451 Climbing New York Center
Tue 09:52:58 AM 40.2428 -75.3719 260° West 148 170 6,200 595 Climbing New York Center
Tue 09:53:58 AM 40.2406 -75.4233 267° West 137 158 7,000 650 Climbing New York Center
Tue 09:54:58 AM 40.2325 -75.4692 257° West 137 158 7,500 550 Climbing New York Center
Tue 09:55:58 AM 40.2289 -75.5122 264° West 137 158 8,100 605 Climbing New York Center
Tue 09:56:57 AM 40.2250 -75.5556 263° West 132 152 8,700 655 Climbing New York Center
Tue 09:57:57 AM 40.2464 -75.5925 307° West 121 139 9,400 694 Climbing New York Center
Tue 09:58:58 AM 40.2717 -75.6322 310° West 127 146 10,100 645 Climbing New York Center
Tue 09:59:58 AM 40.2953 -75.6692 310° West 133 153 10,700 655 Climbing New York Center
Tue 10:00:57 AM 40.3189 -75.7036 312° West 133 153 11,400 600 Climbing New York Center
Tue 10:01:58 AM 40.3406 -75.7350 312° West 133 153 11,900 545 Climbing New York Center
Tue 10:02:58 AM 40.3639 -75.7750 307° West 133 153 12,500 650 Climbing New York Center
Tue 10:03:58 AM 40.3806 -75.8197 296° West 128 147 13,200 650 Climbing New York Center
Tue 10:04:58 AM 40.3911 -75.8642 287° West 128 147 13,800 605 Climbing New York Center
Tue 10:05:57 AM 40.4019 -75.9058 289° West 128 147 14,400 600 Climbing New York Center
Tue 10:06:58 AM 40.4142 -75.9586 287° West 133 153 15,000 595 Climbing New York Center
Tue 10:07:58 AM 40.4250 -75.9975 290° West 133 153 15,600 550 Climbing New York Center
Tue 10:08:58 AM 40.4372 -76.0503 287° West 138 159 16,100 202 Climbing New York Center
Tue 10:09:57 AM 40.4475 -76.1000 285° West 151 174 16,000 -50 Descending New York Center
Tue 10:10:58 AM 40.4597 -76.1528 287° West 151 174 16,000  Level New York Center
Tue 10:11:57 AM 40.4736 -76.2142 287° West 156 180 16,000  Level New York Center
Tue 10:12:58 AM 40.4878 -76.2669 289° West 156 180 16,000  Level New York Center
Tue 10:13:58 AM 40.5017 -76.3256 287° West 162 186 16,000  Level New York Center
Tue 10:14:58 AM 40.5119 -76.3756 285° West 162 186 16,000  Level New York Center
Tue 10:15:58 AM 40.5239 -76.4311 286° West 162 186 16,000  Level New York Center
Tue 10:16:58 AM 40.5397 -76.4925 289° West 167 192 16,000  Level New York Center
Tue 10:17:58 AM 40.5517 -76.5481 286° West 167 192 16,000  Level New York Center
Tue 10:18:58 AM 40.5636 -76.5983 287° West 167 192 16,000  Level New York Center
Tue 10:19:57 AM 40.5775 -76.6567 287° West 167 192 16,000  Level New York Center
Tue 10:20:58 AM 40.5931 -76.7183 288° West 167 192 16,000  Level New York Center
Tue 10:21:58 AM 40.6031 -76.7683 285° West 167 192 16,000  Level New York Center
Tue 10:22:58 AM 40.6167 -76.8269 287° West 167 192 16,000  Level New York Center
Tue 10:23:58 AM 40.6306 -76.8856 287° West 167 192 16,000  Level New York Center
Tue 10:24:58 AM 40.6422 -76.9386 286° West 167 192 16,000  Level New York Center
Tue 10:25:58 AM 40.6558 -77.0000 286° West 167 192 16,000  Level New York Center
Tue 10:26:58 AM 40.6678 -77.0506 287° West 167 192 16,000  Level New York Center
Tue 10:27:58 AM 40.6789 -77.1117 284° West 167 192 16,000  Level New York Center
Tue 10:28:57 AM 40.6925 -77.1678 288° West 167 192 16,000  Level New York Center
Tue 10:29:58 AM 40.7058 -77.2292 286° West 167 192 16,000  Level New York Center
Tue 10:30:58 AM 40.7194 -77.2853 288° West 167 192 16,000 50 Level New York Center
Tue 10:31:57 AM 40.7333 -77.3358 290° West 167 192 16,100 50 Climbing New York Center
Tue 10:32:57 AM 40.7469 -77.3919 288° West 167 192 16,100  Level New York Center
Tue 10:33:58 AM 40.7603 -77.4508 287° West 167 192 16,100  Level New York Center
Tue 10:34:58 AM 40.7694 -77.5094 282° West 167 192 16,100  Level New York Center
Tue 10:35:58 AM 40.7828 -77.5683 287° West 167 192 16,100 -20 Level New York Center
Tue 10:40:03 AM 40.8383 -77.8139 287° West 162 186 16,000 -20 Descending Cleveland Center
Tue 10:41:03 AM 40.8503 -77.8736 285° West 162 186 16,000  Level Cleveland Center
Tue 10:42:03 AM 40.8639 -77.9308 287° West 157 181 16,000  Level Cleveland Center
Tue 10:43:03 AM 40.8758 -77.9881 285° West 152 175 16,000  Level Cleveland Center
Tue 10:44:03 AM 40.8875 -78.0425 286° West 152 175 16,000  Level Cleveland Center
Tue 10:45:03 AM 40.8992 -78.1025 284° West 158 182 16,000  Level Cleveland Center
Tue 10:46:03 AM 40.9128 -78.1569 288° West 163 188 16,000  Level Cleveland Center
Tue 10:47:03 AM 40.9244 -78.2197 284° West 163 188 16,000  Level Cleveland Center
Tue 10:48:03 AM 40.9383 -78.2769 288° West 163 188 16,000  Level Cleveland Center
Tue 10:49:03 AM 40.9497 -78.3342 285° West 163 188 16,000  Level Cleveland Center
Tue 10:50:03 AM 40.9633 -78.3942 287° West 163 188 16,000  Level Cleveland Center
Tue 10:51:03 AM 40.9769 -78.4517 287° West 163 188 16,000  Level Cleveland Center
Tue 10:52:03 AM 40.9886 -78.5092 285° West 163 188 16,000  Level Cleveland Center
Tue 10:53:03 AM 41.0019 -78.5636 288° West 163 188 16,000  Level Cleveland Center
Tue 10:54:03 AM 41.0133 -78.6211 285° West 163 188 16,000  Level Cleveland Center
Tue 10:55:03 AM 41.0247 -78.6786 285° West 163 188 16,000  Level Cleveland Center
Tue 10:56:03 AM 41.0383 -78.7386 287° West 163 188 16,000  Level Cleveland Center
Tue 10:57:03 AM 41.0497 -78.7933 285° West 163 188 16,000  Level Cleveland Center
Tue 10:58:03 AM 41.0608 -78.8511 284° West 163 188 16,000  Level Cleveland Center
Tue 10:59:03 AM 41.0722 -78.9058 285° West 163 188 16,000  Level Cleveland Center
Tue 11:00:03 AM 41.0833 -78.9633 284° West 163 188 16,000  Level Cleveland Center
Tue 11:01:03 AM 41.0967 -79.0181 288° West 163 188 16,000  Level Cleveland Center
Tue 11:02:03 AM 41.1058 -79.0758 282° West 163 188 16,000  Level Cleveland Center
Tue 11:03:03 AM 41.1189 -79.1278 288° West 163 188 16,000  Level Cleveland Center
Tue 11:04:03 AM 41.1281 -79.1856 282° West 163 188 16,000  Level Cleveland Center
Tue 11:05:03 AM 41.1411 -79.2403 288° West 163 188 16,000  Level Cleveland Center
Tue 11:06:03 AM 41.1544 -79.2981 287° West 163 188 16,000  Level Cleveland Center
Tue 11:07:03 AM 41.1656 -79.3531 285° West 163 188 16,000  Level Cleveland Center
Tue 11:08:03 AM 41.1744 -79.4081 282° West 163 188 16,000  Level Cleveland Center
Tue 11:09:03 AM 41.1875 -79.4628 288° West 163 188 16,000  Level Cleveland Center
Tue 11:10:03 AM 41.2006 -79.5206 287° West 163 188 16,000  Level Cleveland Center
Tue 11:11:03 AM 41.2114 -79.5783 284° West 163 188 16,000  Level Cleveland Center
Tue 11:12:03 AM 41.2203 -79.6364 282° West 163 188 16,000  Level Cleveland Center
Tue 11:13:03 AM 41.2311 -79.6942 284° West 163 188 16,000  Level Cleveland Center
Tue 11:14:03 AM 41.2442 -79.7519 287° West 163 188 16,000  Level Cleveland Center
Tue 11:15:03 AM 41.2550 -79.8097 284° West 163 188 16,000  Level Cleveland Center
Tue 11:16:03 AM 41.2656 -79.8678 284° West 163 188 16,000 -50 Level Cleveland Center
Tue 11:17:03 AM 41.2786 -79.9256 287° West 163 188 15,900 -50 Descending Cleveland Center
Tue 11:18:03 AM 41.2892 -79.9861 283° West 163 188 15,900  Level Cleveland Center
Tue 11:19:03 AM 41.3019 -80.0414 287° West 163 188 15,900 -100 Level Cleveland Center
Tue 11:20:03 AM 41.3147 -80.1022 286° West 163 188 15,700 -400 Descending Cleveland Center
Tue 11:21:03 AM 41.3256 -80.1656 283° West 163 188 15,100 -550 Descending Cleveland Center
Tue 11:22:03 AM 41.3528 -80.2236 302° West 169 194 14,600 -550 Descending Cleveland Center
Tue 11:23:03 AM 41.3822 -80.2786 306° West 174 200 14,000 -650 Descending Cleveland Center
Tue 11:24:03 AM 41.3989 -80.3506 287° West 179 206 13,300 -550 Descending Cleveland Center
Tue 11:25:03 AM 41.4117 -80.4142 285° West 190 219 12,900 -400 Descending Cleveland Center
Tue 11:26:03 AM 41.4222 -80.4833 282° West 190 219 12,500 -400 Descending Cleveland Center
Tue 11:27:03 AM 41.4306 -80.5389 281° West 185 213 12,100 -450 Descending Cleveland Center
Tue 11:28:03 AM 41.4389 -80.6025 280° West 179 206 11,600 -700 Descending Cleveland Center
Tue 11:29:03 AM 41.4472 -80.6717 279° West 184 212 10,700 -960 Descending Cleveland Center
Tue 11:29:43 AM 41.4556 -80.7244 282° West 197 227 10,000 -1,013 Descending Cleveland Center
Tue 11:30:20 AM 41.4636 -80.7661 284° West 193 222 9,400 -900 Descending Cleveland Center
Tue 11:31:03 AM 41.4678 -80.8131 277° West 194 223 8,800 -990 Descending Cleveland Center
Tue 11:32:03 AM 41.4758 -80.8825 279° West 194 223 7,700 -1,150 Descending Cleveland Center
Tue 11:33:03 AM 41.4883 -80.9572 283° West 199 229 6,500 -1,100 Descending Cleveland Center
Tue 11:34:03 AM 41.4964 -81.0267 279° West 199 229 5,500 -800 Descending Cleveland Center
Tue 11:35:03 AM 41.5211 -81.0822 301° West 186 214 4,900 -730 Descending Cleveland Center
Tue 11:36:31 AM 41.5603 -81.1547 306° West 165 190 3,700 -725 Descending Cleveland Center
Tue 11:37:32 AM 41.5872 -81.2078 304° West 167 192 3,100 -298 Descending Cleveland Center
Tue 11:38:32 AM 41.6100 -81.2525 304° West 138 159 3,100 -198 Level Cleveland Center
Tue 11:39:33 AM 41.6347 -81.2972 306° West 149 171 2,700 -393 Descending Cleveland Center
Tue 11:41:00 AM 41.6713 -81.3659 26° Northeast  Level Estimated
Tue 11:48:00 AM 41.6833 -81.3833 26° Northeast  Level FlightAware Approximate
Tue 11:49:00 AM 41.6840 -81.3897 26° Northeast  Level Estimated

Login

Don't have an account? Register now (free) for customized features, flight alerts, and more!